Bassett, Wisconsin
Current Conditions -  °F | °C
As of 11:55 AM on Saturday 22 Nov 2014 (Local Time) from KBUU Reporting Station
Haze Haze  
Wind Chill: 32°   Ceiling: 300
Heat Index: 40°   Visibility: 1mi
Dew Point: 40°   Wind: 14mph
Humidity: 100%   Direction: 200°SSW
Pressure: 29.87"   Gusts: NA
Location:  42.54°N, 88.23°W
Report Text: KBUU 221755Z AUTO 20012KT 1SM BR OVC003 04/04 A2987 RMK AO2 T00420042 10042 20000
Loading
Personal Weather Stations






























Interactive Weather Map New forecast layout! Learn more

10-Day Weather Forecast

Advertisements
Track Severe Weather on mobile